sensor_id;sensor_type;location;lat;lon;timestamp;temperature;humidity
9984;DHT22;16737;50.932;6.780;2023-06-14T00:01:13;21.80;49.50
9984;DHT22;16737;50.932;6.780;2023-06-14T00:03:40;21.80;49.60
9984;DHT22;16737;50.932;6.780;2023-06-14T00:06:07;21.80;49.70
9984;DHT22;16737;50.932;6.780;2023-06-14T00:08:36;21.80;49.80
9984;DHT22;16737;50.932;6.780;2023-06-14T00:11:03;21.70;49.80
9984;DHT22;16737;50.932;6.780;2023-06-14T00:13:30;21.70;49.80
9984;DHT22;16737;50.932;6.780;2023-06-14T00:15:57;21.70;49.70
9984;DHT22;16737;50.932;6.780;2023-06-14T00:18:24;21.70;49.90
9984;DHT22;16737;50.932;6.780;2023-06-14T00:20:55;21.60;49.90
9984;DHT22;16737;50.932;6.780;2023-06-14T00:23:22;21.60;50.00
9984;DHT22;16737;50.932;6.780;2023-06-14T00:25:50;21.60;50.00
9984;DHT22;16737;50.932;6.780;2023-06-14T00:28:17;21.50;50.20
9984;DHT22;16737;50.932;6.780;2023-06-14T00:30:44;21.50;50.10
9984;DHT22;16737;50.932;6.780;2023-06-14T00:33:12;21.50;50.20
9984;DHT22;16737;50.932;6.780;2023-06-14T00:35:39;21.40;50.00
9984;DHT22;16737;50.932;6.780;2023-06-14T00:38:05;21.40;50.00
9984;DHT22;16737;50.932;6.780;2023-06-14T00:40:33;21.40;50.00
9984;DHT22;16737;50.932;6.780;2023-06-14T00:43:01;21.40;50.10
9984;DHT22;16737;50.932;6.780;2023-06-14T00:45:28;21.40;50.20
9984;DHT22;16737;50.932;6.780;2023-06-14T00:47:56;21.30;50.20
9984;DHT22;16737;50.932;6.780;2023-06-14T00:50:24;21.30;50.90
9984;DHT22;16737;50.932;6.780;2023-06-14T00:52:51;21.30;50.40
9984;DHT22;16737;50.932;6.780;2023-06-14T00:55:18;21.20;50.30
9984;DHT22;16737;50.932;6.780;2023-06-14T00:57:46;21.20;50.50
9984;DHT22;16737;50.932;6.780;2023-06-14T01:02:48;21.10;50.80
9984;DHT22;16737;50.932;6.780;2023-06-14T01:05:16;21.10;50.70
9984;DHT22;16737;50.932;6.780;2023-06-14T01:07:55;21.10;50.70
9984;DHT22;16737;50.932;6.780;2023-06-14T01:10:36;21.10;51.10
9984;DHT22;16737;50.932;6.780;2023-06-14T01:13:11;21.00;50.80
9984;DHT22;16737;50.932;6.780;2023-06-14T01:15:43;21.00;50.90
9984;DHT22;16737;50.932;6.780;2023-06-14T01:18:12;21.00;51.00
9984;DHT22;16737;50.932;6.780;2023-06-14T01:20:43;21.00;51.10
9984;DHT22;16737;50.932;6.780;2023-06-14T01:23:16;20.90;51.00
9984;DHT22;16737;50.932;6.780;2023-06-14T01:25:43;20.90;51.20
9984;DHT22;16737;50.932;6.780;2023-06-14T01:28:11;20.90;51.30
9984;DHT22;16737;50.932;6.780;2023-06-14T01:30:41;20.80;51.30
9984;DHT22;16737;50.932;6.780;2023-06-14T01:33:12;20.80;51.30
9984;DHT22;16737;50.932;6.780;2023-06-14T01:35:42;20.80;51.30
9984;DHT22;16737;50.932;6.780;2023-06-14T01:38:10;20.70;51.30
9984;DHT22;16737;50.932;6.780;2023-06-14T01:40:40;20.70;51.20
9984;DHT22;16737;50.932;6.780;2023-06-14T01:43:11;20.70;51.40
9984;DHT22;16737;50.932;6.780;2023-06-14T01:45:40;20.60;51.30
9984;DHT22;16737;50.932;6.780;2023-06-14T01:48:09;20.60;51.30
9984;DHT22;16737;50.932;6.780;2023-06-14T01:50:36;20.60;51.50
9984;DHT22;16737;50.932;6.780;2023-06-14T01:53:05;20.50;51.50
9984;DHT22;16737;50.932;6.780;2023-06-14T01:55:34;20.50;51.60
9984;DHT22;16737;50.932;6.780;2023-06-14T01:58:04;20.40;51.50
9984;DHT22;16737;50.932;6.780;2023-06-14T02:00:31;20.40;51.70
9984;DHT22;16737;50.932;6.780;2023-06-14T02:02:58;20.40;51.70
9984;DHT22;16737;50.932;6.780;2023-06-14T02:05:26;20.40;51.70
9984;DHT22;16737;50.932;6.780;2023-06-14T02:07:53;20.30;51.60
9984;DHT22;16737;50.932;6.780;2023-06-14T02:10:20;20.30;51.70
9984;DHT22;16737;50.932;6.780;2023-06-14T02:12:47;20.30;51.80
9984;DHT22;16737;50.932;6.780;2023-06-14T02:15:15;20.30;51.90
9984;DHT22;16737;50.932;6.780;2023-06-14T02:17:43;20.20;51.90
9984;DHT22;16737;50.932;6.780;2023-06-14T02:20:11;20.20;51.90
9984;DHT22;16737;50.932;6.780;2023-06-14T02:22:38;20.20;52.00
9984;DHT22;16737;50.932;6.780;2023-06-14T02:25:06;20.10;52.10
9984;DHT22;16737;50.932;6.780;2023-06-14T02:27:34;20.10;52.20
9984;DHT22;16737;50.932;6.780;2023-06-14T02:30:01;20.10;52.30
9984;DHT22;16737;50.932;6.780;2023-06-14T02:32:30;20.10;52.30
9984;DHT22;16737;50.932;6.780;2023-06-14T02:34:57;20.00;52.40
9984;DHT22;16737;50.932;6.780;2023-06-14T02:37:24;20.00;52.40
9984;DHT22;16737;50.932;6.780;2023-06-14T02:39:51;20.00;52.50
9984;DHT22;16737;50.932;6.780;2023-06-14T02:42:18;19.90;52.40
9984;DHT22;16737;50.932;6.780;2023-06-14T02:44:45;19.90;52.60
9984;DHT22;16737;50.932;6.780;2023-06-14T02:47:16;19.90;52.70
9984;DHT22;16737;50.932;6.780;2023-06-14T02:49:45;19.90;52.70
9984;DHT22;16737;50.932;6.780;2023-06-14T02:52:12;19.90;52.80
9984;DHT22;16737;50.932;6.780;2023-06-14T02:54:39;19.80;52.70
9984;DHT22;16737;50.932;6.780;2023-06-14T02:57:07;19.80;52.80
9984;DHT22;16737;50.932;6.780;2023-06-14T02:59:34;19.80;53.00
9984;DHT22;16737;50.932;6.780;2023-06-14T03:02:01;19.80;53.00
9984;DHT22;16737;50.932;6.780;2023-06-14T03:04:28;19.70;53.10
9984;DHT22;16737;50.932;6.780;2023-06-14T03:06:59;19.70;53.20
9984;DHT22;16737;50.932;6.780;2023-06-14T03:09:28;19.70;53.30
9984;DHT22;16737;50.932;6.780;2023-06-14T03:11:55;19.60;53.20
9984;DHT22;16737;50.932;6.780;2023-06-14T03:14:22;19.60;53.20
9984;DHT22;16737;50.932;6.780;2023-06-14T03:16:49;19.60;53.30
9984;DHT22;16737;50.932;6.780;2023-06-14T03:19:20;19.60;53.30
9984;DHT22;16737;50.932;6.780;2023-06-14T03:21:47;19.60;53.40
9984;DHT22;16737;50.932;6.780;2023-06-14T03:24:16;19.50;53.40
9984;DHT22;16737;50.932;6.780;2023-06-14T03:26:43;19.50;53.60
9984;DHT22;16737;50.932;6.780;2023-06-14T03:29:10;19.50;53.60
9984;DHT22;16737;50.932;6.780;2023-06-14T03:31:58;19.50;53.60
9984;DHT22;16737;50.932;6.780;2023-06-14T03:34:26;19.50;54.20
9984;DHT22;16737;50.932;6.780;2023-06-14T03:36:53;19.40;53.50
9984;DHT22;16737;50.932;6.780;2023-06-14T03:39:22;19.40;53.60
9984;DHT22;16737;50.932;6.780;2023-06-14T03:41:49;19.40;53.90
9984;DHT22;16737;50.932;6.780;2023-06-14T03:44:17;19.30;53.90
9984;DHT22;16737;50.932;6.780;2023-06-14T03:46:45;19.30;54.00
9984;DHT22;16737;50.932;6.780;2023-06-14T03:49:12;19.30;54.10
9984;DHT22;16737;50.932;6.780;2023-06-14T03:51:39;19.30;54.20
9984;DHT22;16737;50.932;6.780;2023-06-14T03:54:06;19.20;54.20
9984;DHT22;16737;50.932;6.780;2023-06-14T03:56:35;19.20;54.30
9984;DHT22;16737;50.932;6.780;2023-06-14T03:59:02;19.20;54.40
9984;DHT22;16737;50.932;6.780;2023-06-14T04:01:29;19.20;54.40
9984;DHT22;16737;50.932;6.780;2023-06-14T04:03:56;19.20;54.60
9984;DHT22;16737;50.932;6.780;2023-06-14T04:06:24;19.20;54.60
9984;DHT22;16737;50.932;6.780;2023-06-14T04:08:58;19.20;54.70
9984;DHT22;16737;50.932;6.780;2023-06-14T04:11:29;19.20;54.90
9984;DHT22;16737;50.932;6.780;2023-06-14T04:13:58;19.20;55.00
9984;DHT22;16737;50.932;6.780;2023-06-14T04:16:25;19.20;55.10
9984;DHT22;16737;50.932;6.780;2023-06-14T04:18:54;19.20;55.10
9984;DHT22;16737;50.932;6.780;2023-06-14T04:21:23;19.20;55.30
9984;DHT22;16737;50.932;6.780;2023-06-14T04:23:53;19.20;55.40
9984;DHT22;16737;50.932;6.780;2023-06-14T04:26:21;19.20;55.50
9984;DHT22;16737;50.932;6.780;2023-06-14T04:28:49;19.20;55.60
9984;DHT22;16737;50.932;6.780;2023-06-14T04:31:18;19.20;55.70
9984;DHT22;16737;50.932;6.780;2023-06-14T04:33:47;19.20;56.40
9984;DHT22;16737;50.932;6.780;2023-06-14T04:36:16;19.20;56.10
9984;DHT22;16737;50.932;6.780;2023-06-14T04:38:43;19.20;56.50
9984;DHT22;16737;50.932;6.780;2023-06-14T04:41:12;19.20;56.30
9984;DHT22;16737;50.932;6.780;2023-06-14T04:43:41;19.30;56.50
9984;DHT22;16737;50.932;6.780;2023-06-14T04:46:08;19.30;57.00
9984;DHT22;16737;50.932;6.780;2023-06-14T04:48:39;19.30;56.90
9984;DHT22;16737;50.932;6.780;2023-06-14T04:51:08;19.30;57.10
9984;DHT22;16737;50.932;6.780;2023-06-14T04:53:35;19.30;56.80
9984;DHT22;16737;50.932;6.780;2023-06-14T04:56:03;19.40;56.90
9984;DHT22;16737;50.932;6.780;2023-06-14T04:58:30;19.40;57.00
9984;DHT22;16737;50.932;6.780;2023-06-14T05:00:58;19.40;57.00
9984;DHT22;16737;50.932;6.780;2023-06-14T05:03:25;19.40;57.00
9984;DHT22;16737;50.932;6.780;2023-06-14T05:05:54;19.40;57.30
9984;DHT22;16737;50.932;6.780;2023-06-14T05:08:21;19.50;57.90
9984;DHT22;16737;50.932;6.780;2023-06-14T05:10:49;19.50;58.10
9984;DHT22;16737;50.932;6.780;2023-06-14T05:13:16;19.50;58.10
9984;DHT22;16737;50.932;6.780;2023-06-14T05:15:43;19.50;58.70
9984;DHT22;16737;50.932;6.780;2023-06-14T05:18:12;19.50;58.90
9984;DHT22;16737;50.932;6.780;2023-06-14T05:20:40;19.60;59.20
9984;DHT22;16737;50.932;6.780;2023-06-14T05:23:09;19.60;59.60
9984;DHT22;16737;50.932;6.780;2023-06-14T05:25:41;19.70;60.30
9984;DHT22;16737;50.932;6.780;2023-06-14T05:28:09;19.70;59.70
9984;DHT22;16737;50.932;6.780;2023-06-14T05:30:38;19.70;59.60
9984;DHT22;16737;50.932;6.780;2023-06-14T05:33:05;19.70;59.80
9984;DHT22;16737;50.932;6.780;2023-06-14T05:35:32;19.80;59.90
9984;DHT22;16737;50.932;6.780;2023-06-14T05:37:59;19.80;60.20
9984;DHT22;16737;50.932;6.780;2023-06-14T05:40:27;19.80;60.20
9984;DHT22;16737;50.932;6.780;2023-06-14T05:42:54;19.90;60.50
9984;DHT22;16737;50.932;6.780;2023-06-14T05:45:21;19.90;60.60
9984;DHT22;16737;50.932;6.780;2023-06-14T05:47:48;20.00;60.90
9984;DHT22;16737;50.932;6.780;2023-06-14T05:50:15;20.00;60.80
9984;DHT22;16737;50.932;6.780;2023-06-14T05:52:42;20.00;61.10
9984;DHT22;16737;50.932;6.780;2023-06-14T05:55:09;20.10;61.20
9984;DHT22;16737;50.932;6.780;2023-06-14T05:57:38;20.10;61.00
9984;DHT22;16737;50.932;6.780;2023-06-14T06:00:07;20.20;61.30
9984;DHT22;16737;50.932;6.780;2023-06-14T06:02:39;20.20;61.20
9984;DHT22;16737;50.932;6.780;2023-06-14T06:05:08;20.30;60.90
9984;DHT22;16737;50.932;6.780;2023-06-14T06:07:35;20.30;60.70
9984;DHT22;16737;50.932;6.780;2023-06-14T06:10:02;20.40;60.70
9984;DHT22;16737;50.932;6.780;2023-06-14T06:12:29;20.40;60.20
9984;DHT22;16737;50.932;6.780;2023-06-14T06:14:58;20.50;60.10
9984;DHT22;16737;50.932;6.780;2023-06-14T06:17:25;20.50;60.40
9984;DHT22;16737;50.932;6.780;2023-06-14T06:19:53;20.60;60.80
9984;DHT22;16737;50.932;6.780;2023-06-14T06:22:20;20.70;60.60
9984;DHT22;16737;50.932;6.780;2023-06-14T06:24:47;20.70;60.70
9984;DHT22;16737;50.932;6.780;2023-06-14T06:27:14;20.80;61.00
9984;DHT22;16737;50.932;6.780;2023-06-14T06:29:42;20.80;60.70
9984;DHT22;16737;50.932;6.780;2023-06-14T06:32:10;20.90;60.80
9984;DHT22;16737;50.932;6.780;2023-06-14T06:34:37;21.00;60.90
9984;DHT22;16737;50.932;6.780;2023-06-14T06:37:05;21.00;60.70
9984;DHT22;16737;50.932;6.780;2023-06-14T06:39:33;21.10;60.70
9984;DHT22;16737;50.932;6.780;2023-06-14T06:42:00;21.20;60.70
9984;DHT22;16737;50.932;6.780;2023-06-14T06:44:27;21.20;60.70
9984;DHT22;16737;50.932;6.780;2023-06-14T06:46:54;21.30;60.20
9984;DHT22;16737;50.932;6.780;2023-06-14T06:49:22;21.30;60.00
9984;DHT22;16737;50.932;6.780;2023-06-14T06:52:02;21.40;60.50
9984;DHT22;16737;50.932;6.780;2023-06-14T06:54:30;21.50;60.40
9984;DHT22;16737;50.932;6.780;2023-06-14T06:56:58;21.60;60.50
9984;DHT22;16737;50.932;6.780;2023-06-14T06:59:25;21.60;60.30
9984;DHT22;16737;50.932;6.780;2023-06-14T07:01:52;21.70;60.20
9984;DHT22;16737;50.932;6.780;2023-06-14T07:04:19;21.80;60.40
9984;DHT22;16737;50.932;6.780;2023-06-14T07:06:47;21.80;60.40
9984;DHT22;16737;50.932;6.780;2023-06-14T07:09:14;21.90;60.90
9984;DHT22;16737;50.932;6.780;2023-06-14T07:11:43;22.00;60.40
9984;DHT22;16737;50.932;6.780;2023-06-14T07:14:13;22.10;60.10
9984;DHT22;16737;50.932;6.780;2023-06-14T07:16:40;22.20;59.90
9984;DHT22;16737;50.932;6.780;2023-06-14T07:19:08;22.30;59.90
9984;DHT22;16737;50.932;6.780;2023-06-14T07:21:36;22.30;59.80
9984;DHT22;16737;50.932;6.780;2023-06-14T07:24:06;22.40;59.80
9984;DHT22;16737;50.932;6.780;2023-06-14T07:26:33;22.50;60.20
9984;DHT22;16737;50.932;6.780;2023-06-14T07:29:00;22.60;60.90
9984;DHT22;16737;50.932;6.780;2023-06-14T07:31:28;22.70;59.60
9984;DHT22;16737;50.932;6.780;2023-06-14T07:33:55;22.80;59.80
9984;DHT22;16737;50.932;6.780;2023-06-14T07:36:22;22.90;59.90
9984;DHT22;16737;50.932;6.780;2023-06-14T07:38:49;23.00;59.70
9984;DHT22;16737;50.932;6.780;2023-06-14T07:41:17;23.10;60.00
9984;DHT22;16737;50.932;6.780;2023-06-14T07:43:44;23.10;59.20
9984;DHT22;16737;50.932;6.780;2023-06-14T07:46:11;23.20;59.50
9984;DHT22;16737;50.932;6.780;2023-06-14T07:48:39;23.30;59.50
9984;DHT22;16737;50.932;6.780;2023-06-14T07:51:05;23.40;59.90
9984;DHT22;16737;50.932;6.780;2023-06-14T07:53:32;23.50;60.10
9984;DHT22;16737;50.932;6.780;2023-06-14T07:55:59;23.60;60.30
9984;DHT22;16737;50.932;6.780;2023-06-14T07:58:29;23.70;59.90
9984;DHT22;16737;50.932;6.780;2023-06-14T08:00:56;23.80;59.70
9984;DHT22;16737;50.932;6.780;2023-06-14T08:03:23;23.90;59.30
9984;DHT22;16737;50.932;6.780;2023-06-14T08:05:50;24.00;59.60
9984;DHT22;16737;50.932;6.780;2023-06-14T08:08:17;24.10;59.80
9984;DHT22;16737;50.932;6.780;2023-06-14T08:10:44;24.20;59.90
9984;DHT22;16737;50.932;6.780;2023-06-14T08:13:11;24.30;58.60
9984;DHT22;16737;50.932;6.780;2023-06-14T08:15:40;24.40;59.10
9984;DHT22;16737;50.932;6.780;2023-06-14T08:18:06;24.50;59.50
9984;DHT22;16737;50.932;6.780;2023-06-14T08:20:33;24.70;59.00
9984;DHT22;16737;50.932;6.780;2023-06-14T08:23:02;24.70;59.00
9984;DHT22;16737;50.932;6.780;2023-06-14T08:25:29;24.90;59.00
9984;DHT22;16737;50.932;6.780;2023-06-14T08:28:01;24.90;58.70
9984;DHT22;16737;50.932;6.780;2023-06-14T08:30:30;25.10;58.40
9984;DHT22;16737;50.932;6.780;2023-06-14T08:32:58;25.20;59.00
9984;DHT22;16737;50.932;6.780;2023-06-14T08:35:25;25.30;58.60
9984;DHT22;16737;50.932;6.780;2023-06-14T08:37:52;25.40;57.70
9984;DHT22;16737;50.932;6.780;2023-06-14T08:40:22;25.50;55.80
9984;DHT22;16737;50.932;6.780;2023-06-14T08:42:52;25.50;55.00
9984;DHT22;16737;50.932;6.780;2023-06-14T08:45:24;25.60;54.90
9984;DHT22;16737;50.932;6.780;2023-06-14T08:47:52;25.70;54.20
9984;DHT22;16737;50.932;6.780;2023-06-14T08:50:25;25.70;53.30
9984;DHT22;16737;50.932;6.780;2023-06-14T08:52:58;25.70;52.60
9984;DHT22;16737;50.932;6.780;2023-06-14T08:55:28;25.80;53.50
9984;DHT22;16737;50.932;6.780;2023-06-14T08:57:57;25.80;53.20
9984;DHT22;16737;50.932;6.780;2023-06-14T09:00:26;25.90;52.40
9984;DHT22;16737;50.932;6.780;2023-06-14T09:02:55;25.90;52.50
9984;DHT22;16737;50.932;6.780;2023-06-14T09:05:25;25.90;52.20
9984;DHT22;16737;50.932;6.780;2023-06-14T09:07:53;25.90;51.80
9984;DHT22;16737;50.932;6.780;2023-06-14T09:10:22;26.00;52.30
9984;DHT22;16737;50.932;6.780;2023-06-14T09:12:51;26.10;52.50
9984;DHT22;16737;50.932;6.780;2023-06-14T09:15:18;26.10;52.50
9984;DHT22;16737;50.932;6.780;2023-06-14T09:17:46;26.20;52.10
9984;DHT22;16737;50.932;6.780;2023-06-14T09:20:13;26.30;52.10
9984;DHT22;16737;50.932;6.780;2023-06-14T09:22:45;26.40;52.20
9984;DHT22;16737;50.932;6.780;2023-06-14T09:25:12;26.50;51.20
9984;DHT22;16737;50.932;6.780;2023-06-14T09:27:40;26.60;51.30
9984;DHT22;16737;50.932;6.780;2023-06-14T09:30:09;26.70;51.10
9984;DHT22;16737;50.932;6.780;2023-06-14T09:32:38;26.70;51.40
9984;DHT22;16737;50.932;6.780;2023-06-14T09:35:06;26.80;50.90
9984;DHT22;16737;50.932;6.780;2023-06-14T09:37:37;26.80;51.30
9984;DHT22;16737;50.932;6.780;2023-06-14T09:40:07;26.90;51.00
9984;DHT22;16737;50.932;6.780;2023-06-14T09:42:35;27.00;51.70
9984;DHT22;16737;50.932;6.780;2023-06-14T09:45:03;27.10;52.10
9984;DHT22;16737;50.932;6.780;2023-06-14T09:47:32;27.20;52.20
9984;DHT22;16737;50.932;6.780;2023-06-14T09:49:59;27.30;51.20
9984;DHT22;16737;50.932;6.780;2023-06-14T09:52:27;27.40;51.00
9984;DHT22;16737;50.932;6.780;2023-06-14T09:54:59;27.50;50.10
9984;DHT22;16737;50.932;6.780;2023-06-14T09:57:29;27.60;49.80
9984;DHT22;16737;50.932;6.780;2023-06-14T10:00:00;27.70;49.30
9984;DHT22;16737;50.932;6.780;2023-06-14T10:02:36;27.70;49.50
9984;DHT22;16737;50.932;6.780;2023-06-14T10:05:06;27.80;49.20
9984;DHT22;16737;50.932;6.780;2023-06-14T10:07:39;27.80;49.10
9984;DHT22;16737;50.932;6.780;2023-06-14T10:10:09;27.80;48.50
9984;DHT22;16737;50.932;6.780;2023-06-14T10:12:38;27.80;48.70
9984;DHT22;16737;50.932;6.780;2023-06-14T10:15:09;27.90;48.90
9984;DHT22;16737;50.932;6.780;2023-06-14T10:17:43;27.90;49.00
9984;DHT22;16737;50.932;6.780;2023-06-14T10:20:21;27.90;48.40
9984;DHT22;16737;50.932;6.780;2023-06-14T10:23:00;28.00;48.00
9984;DHT22;16737;50.932;6.780;2023-06-14T10:25:32;28.00;47.90
9984;DHT22;16737;50.932;6.780;2023-06-14T10:28:14;28.00;48.70
9984;DHT22;16737;50.932;6.780;2023-06-14T10:31:07;28.00;47.30
9984;DHT22;16737;50.932;6.780;2023-06-14T10:33:36;28.00;47.30
9984;DHT22;16737;50.932;6.780;2023-06-14T10:36:26;28.00;48.10
9984;DHT22;16737;50.932;6.780;2023-06-14T10:39:00;28.10;48.90
9984;DHT22;16737;50.932;6.780;2023-06-14T10:41:31;28.10;48.80
9984;DHT22;16737;50.932;6.780;2023-06-14T10:44:34;28.10;48.50
9984;DHT22;16737;50.932;6.780;2023-06-14T10:47:08;28.20;47.60
9984;DHT22;16737;50.932;6.780;2023-06-14T10:49:38;28.20;48.10
9984;DHT22;16737;50.932;6.780;2023-06-14T10:52:08;28.20;48.10
9984;DHT22;16737;50.932;6.780;2023-06-14T10:55:07;28.20;47.70
9984;DHT22;16737;50.932;6.780;2023-06-14T10:57:37;28.20;47.60
9984;DHT22;16737;50.932;6.780;2023-06-14T11:00:08;28.20;47.90
9984;DHT22;16737;50.932;6.780;2023-06-14T11:05:53;28.20;47.10
9984;DHT22;16737;50.932;6.780;2023-06-14T11:08:40;28.20;47.80
9984;DHT22;16737;50.932;6.780;2023-06-14T11:11:32;28.20;47.30
9984;DHT22;16737;50.932;6.780;2023-06-14T11:14:00;28.20;47.50
9984;DHT22;16737;50.932;6.780;2023-06-14T11:16:29;28.10;47.80
9984;DHT22;16737;50.932;6.780;2023-06-14T11:19:00;28.10;47.60
9984;DHT22;16737;50.932;6.780;2023-06-14T11:21:28;28.10;47.70
9984;DHT22;16737;50.932;6.780;2023-06-14T11:23:57;28.10;47.90
9984;DHT22;16737;50.932;6.780;2023-06-14T11:26:29;28.20;48.10
9984;DHT22;16737;50.932;6.780;2023-06-14T11:28:57;28.20;47.90
9984;DHT22;16737;50.932;6.780;2023-06-14T11:31:25;28.20;48.00
9984;DHT22;16737;50.932;6.780;2023-06-14T11:33:55;28.20;48.10
9984;DHT22;16737;50.932;6.780;2023-06-14T11:36:26;28.20;47.90
9984;DHT22;16737;50.932;6.780;2023-06-14T11:38:58;28.20;47.80
9984;DHT22;16737;50.932;6.780;2023-06-14T11:41:32;28.30;47.60
9984;DHT22;16737;50.932;6.780;2023-06-14T11:44:01;28.20;47.50
9984;DHT22;16737;50.932;6.780;2023-06-14T11:46:29;28.30;47.80
9984;DHT22;16737;50.932;6.780;2023-06-14T11:48:57;28.30;47.40
9984;DHT22;16737;50.932;6.780;2023-06-14T11:51:24;28.20;47.30
9984;DHT22;16737;50.932;6.780;2023-06-14T11:53:51;28.30;47.50
9984;DHT22;16737;50.932;6.780;2023-06-14T11:56:19;28.30;47.70
9984;DHT22;16737;50.932;6.780;2023-06-14T11:58:46;28.30;47.70
9984;DHT22;16737;50.932;6.780;2023-06-14T12:01:16;28.30;48.00
9984;DHT22;16737;50.932;6.780;2023-06-14T12:03:47;28.40;48.40
9984;DHT22;16737;50.932;6.780;2023-06-14T12:06:24;28.40;47.10
9984;DHT22;16737;50.932;6.780;2023-06-14T12:08:55;28.50;47.90
9984;DHT22;16737;50.932;6.780;2023-06-14T12:11:23;28.60;48.50
9984;DHT22;16737;50.932;6.780;2023-06-14T12:13:50;28.80;48.20
9984;DHT22;16737;50.932;6.780;2023-06-14T12:16:17;28.80;47.30
9984;DHT22;16737;50.932;6.780;2023-06-14T12:18:44;28.90;47.80
9984;DHT22;16737;50.932;6.780;2023-06-14T12:21:11;29.00;48.40
9984;DHT22;16737;50.932;6.780;2023-06-14T12:23:46;29.10;49.20
9984;DHT22;16737;50.932;6.780;2023-06-14T12:26:15;29.20;47.40
9984;DHT22;16737;50.932;6.780;2023-06-14T12:28:44;29.20;47.80
9984;DHT22;16737;50.932;6.780;2023-06-14T12:31:13;29.20;47.70
9984;DHT22;16737;50.932;6.780;2023-06-14T12:33:42;29.20;48.10
9984;DHT22;16737;50.932;6.780;2023-06-14T12:36:11;29.20;48.40
9984;DHT22;16737;50.932;6.780;2023-06-14T12:38:38;29.20;48.60
9984;DHT22;16737;50.932;6.780;2023-06-14T12:41:06;29.20;48.40
9984;DHT22;16737;50.932;6.780;2023-06-14T12:43:34;29.20;47.50
9984;DHT22;16737;50.932;6.780;2023-06-14T12:46:01;29.30;47.10
9984;DHT22;16737;50.932;6.780;2023-06-14T12:48:28;29.30;47.60
9984;DHT22;16737;50.932;6.780;2023-06-14T12:50:56;29.30;47.50
9984;DHT22;16737;50.932;6.780;2023-06-14T12:53:23;29.30;47.00
9984;DHT22;16737;50.932;6.780;2023-06-14T12:55:50;29.30;48.30
9984;DHT22;16737;50.932;6.780;2023-06-14T12:58:20;29.30;47.70
9984;DHT22;16737;50.932;6.780;2023-06-14T13:00:49;29.40;47.60
9984;DHT22;16737;50.932;6.780;2023-06-14T13:03:16;29.50;47.20
9984;DHT22;16737;50.932;6.780;2023-06-14T13:05:42;29.50;47.70
9984;DHT22;16737;50.932;6.780;2023-06-14T13:08:09;29.50;47.80
9984;DHT22;16737;50.932;6.780;2023-06-14T13:10:36;29.50;47.60
9984;DHT22;16737;50.932;6.780;2023-06-14T13:13:03;29.50;47.60
9984;DHT22;16737;50.932;6.780;2023-06-14T13:15:31;29.40;47.40
9984;DHT22;16737;50.932;6.780;2023-06-14T13:17:59;29.30;47.50
9984;DHT22;16737;50.932;6.780;2023-06-14T13:20:26;29.20;47.70
9984;DHT22;16737;50.932;6.780;2023-06-14T13:22:53;29.20;48.50
9984;DHT22;16737;50.932;6.780;2023-06-14T13:25:20;29.20;48.80
9984;DHT22;16737;50.932;6.780;2023-06-14T13:27:47;29.20;48.40
9984;DHT22;16737;50.932;6.780;2023-06-14T13:30:14;29.20;48.20
9984;DHT22;16737;50.932;6.780;2023-06-14T13:32:43;29.20;48.20
9984;DHT22;16737;50.932;6.780;2023-06-14T13:35:10;29.20;47.80
9984;DHT22;16737;50.932;6.780;2023-06-14T13:37:37;29.20;47.90
9984;DHT22;16737;50.932;6.780;2023-06-14T13:40:05;29.20;47.70
9984;DHT22;16737;50.932;6.780;2023-06-14T13:42:33;29.20;47.80
9984;DHT22;16737;50.932;6.780;2023-06-14T13:45:01;29.30;48.40
9984;DHT22;16737;50.932;6.780;2023-06-14T13:47:29;29.30;47.90
9984;DHT22;16737;50.932;6.780;2023-06-14T13:49:57;29.40;48.70
9984;DHT22;16737;50.932;6.780;2023-06-14T13:52:25;29.40;47.80
9984;DHT22;16737;50.932;6.780;2023-06-14T13:54:52;29.30;47.80
9984;DHT22;16737;50.932;6.780;2023-06-14T13:57:19;29.30;48.00
9984;DHT22;16737;50.932;6.780;2023-06-14T13:59:47;29.30;48.40
9984;DHT22;16737;50.932;6.780;2023-06-14T14:02:14;29.30;48.30
9984;DHT22;16737;50.932;6.780;2023-06-14T14:04:41;29.30;48.10
9984;DHT22;16737;50.932;6.780;2023-06-14T14:07:09;29.30;48.10
9984;DHT22;16737;50.932;6.780;2023-06-14T14:09:36;29.40;47.90
9984;DHT22;16737;50.932;6.780;2023-06-14T14:12:05;29.40;47.80
9984;DHT22;16737;50.932;6.780;2023-06-14T14:14:33;29.40;47.30
9984;DHT22;16737;50.932;6.780;2023-06-14T14:17:00;29.40;47.40
9984;DHT22;16737;50.932;6.780;2023-06-14T14:19:27;29.40;47.40
9984;DHT22;16737;50.932;6.780;2023-06-14T14:21:54;29.30;47.80
9984;DHT22;16737;50.932;6.780;2023-06-14T14:24:22;29.20;47.90
9984;DHT22;16737;50.932;6.780;2023-06-14T14:26:51;29.30;47.70
9984;DHT22;16737;50.932;6.780;2023-06-14T14:29:19;29.20;47.60
9984;DHT22;16737;50.932;6.780;2023-06-14T14:31:47;29.20;47.60
9984;DHT22;16737;50.932;6.780;2023-06-14T14:34:14;29.20;48.10
9984;DHT22;16737;50.932;6.780;2023-06-14T14:36:41;29.20;47.60
9984;DHT22;16737;50.932;6.780;2023-06-14T14:39:09;29.10;47.40
9984;DHT22;16737;50.932;6.780;2023-06-14T14:41:38;29.00;47.40
9984;DHT22;16737;50.932;6.780;2023-06-14T14:44:06;29.00;47.30
9984;DHT22;16737;50.932;6.780;2023-06-14T14:46:33;28.90;47.40
9984;DHT22;16737;50.932;6.780;2023-06-14T14:49:00;28.90;48.20
9984;DHT22;16737;50.932;6.780;2023-06-14T14:51:27;28.90;48.40
9984;DHT22;16737;50.932;6.780;2023-06-14T14:53:54;28.90;48.70
9984;DHT22;16737;50.932;6.780;2023-06-14T14:56:22;29.00;48.60
9984;DHT22;16737;50.932;6.780;2023-06-14T14:58:50;29.00;48.10
9984;DHT22;16737;50.932;6.780;2023-06-14T15:01:18;29.10;47.70
9984;DHT22;16737;50.932;6.780;2023-06-14T15:03:45;29.10;47.60
9984;DHT22;16737;50.932;6.780;2023-06-14T15:06:12;29.10;48.00
9984;DHT22;16737;50.932;6.780;2023-06-14T15:08:39;29.10;48.40
9984;DHT22;16737;50.932;6.780;2023-06-14T15:11:06;29.10;47.80
9984;DHT22;16737;50.932;6.780;2023-06-14T15:13:33;29.10;47.70
9984;DHT22;16737;50.932;6.780;2023-06-14T15:16:01;29.00;47.60
9984;DHT22;16737;50.932;6.780;2023-06-14T15:18:28;29.00;47.30
9984;DHT22;16737;50.932;6.780;2023-06-14T15:20:55;28.90;47.10
9984;DHT22;16737;50.932;6.780;2023-06-14T15:23:22;28.90;47.60
9984;DHT22;16737;50.932;6.780;2023-06-14T15:25:49;28.80;47.60
9984;DHT22;16737;50.932;6.780;2023-06-14T15:28:17;28.80;47.80
9984;DHT22;16737;50.932;6.780;2023-06-14T15:30:44;28.80;47.50
9984;DHT22;16737;50.932;6.780;2023-06-14T15:33:13;28.80;47.70
9984;DHT22;16737;50.932;6.780;2023-06-14T15:35:39;28.80;47.40
9984;DHT22;16737;50.932;6.780;2023-06-14T15:38:06;28.80;47.70
9984;DHT22;16737;50.932;6.780;2023-06-14T15:40:33;28.80;48.00
9984;DHT22;16737;50.932;6.780;2023-06-14T15:43:00;28.80;47.90
9984;DHT22;16737;50.932;6.780;2023-06-14T15:45:29;28.80;47.90
9984;DHT22;16737;50.932;6.780;2023-06-14T15:47:57;28.90;47.60
9984;DHT22;16737;50.932;6.780;2023-06-14T15:50:26;28.90;47.90
9984;DHT22;16737;50.932;6.780;2023-06-14T15:52:53;28.90;47.60
9984;DHT22;16737;50.932;6.780;2023-06-14T15:55:20;28.90;47.90
9984;DHT22;16737;50.932;6.780;2023-06-14T15:57:47;28.90;47.50
9984;DHT22;16737;50.932;6.780;2023-06-14T16:00:16;28.90;47.10